Pagrindinis puslapis
METAR-TAF:

METAR-TAF

Oro uostai :

Malė, Maldyvai

platuma: 04-12N, ilguma: 073-32E, Aukštis: 2 m

Dabartinis oras

Ataskaita buvo paskelbta 1 valandą ir 24 minutes, ne 22:00 UTC
Vėjas 14 kt iš Vakarų/Pietvakarių
Temperatūra 26°C
Drėgmė 84%
Slėgis 1009 hPa
Matomumas: 7000 m
Išsisklaidę debesys ne aukštis 1700 ft
Mažai debesys ne aukštis 1800 ft, Liūtiniai kamuoliniai debesys.
lietus

METAR: VRMM 052200Z 25014KT 7000 -SHRA SCT017 FEW018CB 26/23 Q1009 CB S,S TEMPO 4000 SHRA

Laikas: 04:24 (23:24 UTC)

Prognozė

Ataskaita buvo paskelbta 6 valandos ir 24 minutes, ne 17:00 UTC
Prognozė galioja nuo 05 metu 18 UTC su 06 metu 24 UTC
Vėjas 12 kt iš Pietvakarių
Matomumas 10 km arba daugiau
Mažai debesys ne aukštis 1800 ft, aukštai iškilę kamuoliniai debesys.
Laikinai
nuo 05 metu 18 UTC su 05 metu 24 UTC
Matomumas: 5000 m
Mažai debesys ne aukštis 1800 ft, Liūtiniai kamuoliniai debesys.
perkūnija, lietus

TAF: VRMM 051700Z 0518/0624 22012KT 9999 FEW018TCU TEMPO 0518/0524 5000 -TSRA FEW018CB

Orai ataskaitas ir orų prognozės (METAR, TAF).

turimą stotys yra geltonos ir raudonos taškus žemėlapyje.

Perkelti pele per norėdami pamatyti stoties vardą.

Tada spustelėkite, norėdami matyti oro stebėjimo ir prognozės.

Norėdami pakeisti žemėlapį: spustelėkite ant žalios mygtukų su juodo kryžiaus žemyn,; žalią mygtuką su brūkšneliu, jei norite nutolinti; arba žalių rodyklių gretimoms žemėlapius.


METAR-TAF: